Time;durP1;ratioP1;P1;durP2;ratioP2;P2;SDS_P1;SDS_P2;PMS_P1;PMS_P2;Temp;Humidity;BMP_temperature;BMP_pressure;BME280_temperature;BME280_humidity;BME280_pressure;Samples;Min_cycle;Max_cycle;Signal;HPM_P1;HPM_P2
2022/06/23 00:00:24;;;;;;;4.20;1.30;;;17.00;1.40;;;18.19;100.00;95098.94;645907;216;31656;-73
2022/06/23 00:03:06;;;;;;;5.95;2.12;;;16.90;1.40;;;18.19;100.00;95099.64;620472;226;32096;-73
2022/06/23 00:05:53;;;;;;;2.53;1.53;;;17.00;1.40;;;18.24;100.00;95098.16;646609;212;31609;-73
2022/06/23 00:08:42;;;;;;;2.72;1.60;;;17.00;1.40;;;18.26;100.00;95096.18;646847;216;31527;-74
2022/06/23 00:11:27;;;;;;;1.75;1.55;;;17.00;1.40;;;18.32;100.00;95101.97;646527;212;31559;-74
2022/06/23 00:16:44;;;;;;;4.20;2.20;;;17.20;1.40;;;18.45;100.00;95099.10;618606;226;32004;-73
2022/06/23 00:19:24;;;;;;;2.53;1.48;;;17.20;1.40;;;18.43;100.00;95088.07;646521;216;31661;-74
2022/06/23 00:22:11;;;;;;;2.30;1.83;;;17.20;1.40;;;18.49;100.00;95087.88;646289;212;31479;-72
2022/06/23 00:24:55;;;;;;;6.70;1.90;;;17.30;1.40;;;18.56;100.00;95090.36;645955;216;31528;-73
2022/06/23 00:30:21;;;;;;;3.60;2.10;;;17.30;1.40;;;18.57;100.00;95098.95;646614;216;31918;-74
2022/06/23 00:35:52;;;;;;;2.35;2.12;;;17.40;1.40;;;18.59;100.00;95126.02;646954;216;31584;-75
2022/06/23 00:38:34;;;;;;;2.10;1.90;;;17.30;1.40;;;18.25;100.00;95121.47;646558;216;31554;-74
2022/06/23 00:41:17;;;;;;;3.70;2.22;;;17.10;1.40;;;18.23;100.00;95117.93;645172;216;42154;-74
2022/06/23 00:43:58;;;;;;;2.20;1.50;;;17.10;1.40;;;18.30;100.00;95113.70;646481;216;31558;-74
2022/06/23 00:46:42;;;;;;;2.03;1.77;;;17.10;1.40;;;18.30;100.00;95109.01;646254;216;42175;-73
2022/06/23 00:49:40;;;;;;;2.37;1.70;;;17.10;1.40;;;18.37;100.00;95110.67;646935;216;31660;-74
2022/06/23 00:52:23;;;;;;;2.62;2.42;;;17.20;1.40;;;18.43;100.00;95114.27;644075;212;31679;-73
2022/06/23 00:55:23;;;;;;;2.42;1.70;;;17.10;1.40;;;18.46;100.00;95123.52;645307;216;31569;-73
2022/06/23 00:58:22;;;;;;;4.72;2.08;;;17.30;1.40;;;18.43;100.00;95127.11;646732;216;31533;-73
2022/06/23 01:01:36;;;;;;;4.40;2.12;;;17.30;1.40;;;18.40;100.00;95122.03;645245;216;32444;-73
2022/06/23 01:04:35;;;;;;;5.50;3.55;;;17.20;1.40;;;18.36;100.00;95125.22;646194;212;31849;-73
2022/06/23 01:07:41;;;;;;;7.93;2.55;;;17.20;1.40;;;18.27;100.00;95123.64;646538;216;31597;-73
2022/06/23 01:10:45;;;;;;;6.93;1.90;;;17.20;1.40;;;18.22;100.00;95118.27;645759;216;31600;-73
2022/06/23 01:13:34;;;;;;;1.83;1.33;;;17.20;1.40;;;18.23;100.00;95116.41;647401;212;32366;-73
2022/06/23 01:16:17;;;;;;;2.78;1.90;;;17.20;1.40;;;18.19;100.00;95129.44;646922;212;32567;-74
2022/06/23 01:19:01;;;;;;;2.50;2.30;;;17.10;1.40;;;18.16;100.00;95135.79;645924;212;31574;-73
2022/06/23 01:21:44;;;;;;;6.37;1.90;;;17.10;1.40;;;18.15;100.00;95133.48;646017;212;31537;-74
2022/06/23 01:28:03;;;;;;;1.53;1.43;;;17.10;1.40;;;18.10;100.00;95128.56;645599;212;31694;-73
2022/06/23 01:31:11;;;;;;;3.05;2.08;;;17.10;1.40;;;18.11;100.00;95130.20;647025;216;31514;-73
2022/06/23 01:35:54;;;;;;;2.70;1.95;;;17.10;1.40;;;18.11;100.00;95126.38;647257;212;31881;-73
2022/06/23 01:38:42;;;;;;;2.65;1.65;;;17.10;1.40;;;18.09;100.00;95130.54;646932;216;31562;-73
2022/06/23 01:41:30;;;;;;;2.95;1.30;;;17.10;1.40;;;18.12;100.00;95134.73;646223;216;31653;-74
2022/06/23 01:44:41;;;;;;;2.47;1.87;;;17.10;1.40;;;18.15;100.00;95131.14;646867;215;31502;-74
2022/06/23 01:47:28;;;;;;;4.25;2.05;;;17.10;1.40;;;18.18;100.00;95129.32;646689;216;31514;-74
2022/06/23 01:50:32;;;;;;;3.70;1.65;;;17.10;1.40;;;18.14;100.00;95129.33;618770;222;31841;-74
2022/06/23 01:53:26;;;;;;;5.10;1.80;;;17.10;1.40;;;18.13;100.00;95132.55;638444;216;32035;-74
2022/06/23 01:56:09;;;;;;;2.40;1.90;;;17.10;1.40;;;18.11;100.00;95137.16;646879;212;31556;-74
2022/06/23 01:58:58;;;;;;;1.48;1.37;;;17.10;1.40;;;18.10;100.00;95135.14;646298;216;31518;-74
2022/06/23 02:01:47;;;;;;;2.97;1.60;;;17.10;1.40;;;18.10;100.00;95140.58;647325;216;31974;-74
2022/06/23 02:04:32;;;;;;;2.08;1.67;;;17.10;1.40;;;18.07;100.00;95141.36;646924;216;31512;-73
2022/06/23 02:07:20;;;;;;;2.30;1.80;;;17.10;1.40;;;18.11;100.00;95137.94;619527;222;31982;-74
2022/06/23 02:10:09;;;;;;;3.55;1.90;;;17.10;1.40;;;18.11;100.00;95138.44;647204;212;31518;-74
2022/06/23 02:12:53;;;;;;;1.55;1.10;;;17.10;1.40;;;18.06;100.00;95139.56;645516;216;31505;-73
2022/06/23 02:15:50;;;;;;;2.08;1.67;;;17.00;1.40;;;17.99;100.00;95150.37;646576;216;31568;-74
2022/06/23 02:18:33;;;;;;;4.33;1.90;;;16.90;1.40;;;17.83;100.00;95163.28;647003;216;31513;-75
2022/06/23 02:21:35;;;;;;;2.37;1.50;;;16.90;1.40;;;17.90;100.00;95159.84;647007;216;31478;-74
2022/06/23 02:24:24;;;;;;;1.83;1.10;;;16.80;1.40;;;17.97;100.00;95159.30;646524;216;31518;-74
2022/06/23 02:27:16;;;;;;;4.35;2.40;;;16.90;1.40;;;17.99;100.00;95165.67;630452;222;31770;-74
2022/06/23 02:30:00;;;;;;;4.60;1.83;;;16.90;1.40;;;18.12;100.00;95168.89;645999;216;42194;-73
2022/06/23 02:32:54;;;;;;;1.30;0.90;;;16.90;1.40;;;18.15;100.00;95173.20;645462;216;31519;-73
2022/06/23 02:36:00;;;;;;;1.50;1.20;;;17.00;1.40;;;18.16;100.00;95174.52;645885;216;31577;-72
2022/06/23 02:38:45;;;;;;;3.77;1.87;;;16.90;1.40;;;18.29;100.00;95175.63;647058;216;42537;-73
2022/06/23 02:41:31;;;;;;;2.17;1.45;;;17.00;1.40;;;18.29;100.00;95174.31;645722;216;31561;-73
2022/06/23 02:44:33;;;;;;;2.73;1.60;;;17.00;1.40;;;18.32;100.00;95173.94;645291;216;31528;-74
2022/06/23 02:47:26;;;;;;;2.33;1.58;;;17.00;1.40;;;18.32;100.00;95175.63;647239;216;31563;-74
2022/06/23 02:50:22;;;;;;;2.12;1.70;;;17.00;1.40;;;18.34;100.00;95181.59;619145;222;31928;-74
2022/06/23 02:53:07;;;;;;;3.33;2.30;;;17.00;1.40;;;18.34;100.00;95181.75;639168;216;32250;-74
2022/06/23 02:55:50;;;;;;;7.40;1.80;;;17.00;1.40;;;18.34;100.00;95183.16;646863;216;32084;-74
2022/06/23 02:58:33;;;;;;;2.47;1.65;;;17.00;1.40;;;18.31;100.00;95179.87;645626;216;31561;-75
2022/06/23 03:01:27;;;;;;;1.85;1.08;;;16.90;1.40;;;18.31;100.00;95180.11;646325;216;33178;-74
2022/06/23 03:04:16;;;;;;;4.37;1.85;;;16.90;1.40;;;18.31;100.00;95178.17;647064;216;31661;-73
2022/06/23 03:07:01;;;;;;;8.00;1.77;;;16.90;1.40;;;18.38;100.00;95179.77;646962;216;31651;-73
2022/06/23 03:09:42;;;;;;;2.60;1.90;;;16.90;1.40;;;18.28;100.00;95182.72;647332;216;31536;-75
2022/06/23 03:12:25;;;;;;;2.75;2.17;;;16.90;1.40;;;18.21;100.00;95184.39;646529;216;31637;-75
2022/06/23 03:15:09;;;;;;;3.37;2.42;;;16.90;1.40;;;18.17;100.00;95189.67;618276;225;31954;-75
2022/06/23 03:17:53;;;;;;;3.17;1.30;;;16.80;1.40;;;18.22;100.00;95190.56;646913;212;31859;-75
2022/06/23 03:20:37;;;;;;;2.03;1.70;;;16.80;1.40;;;18.27;100.00;95194.37;647442;216;31585;-75
2022/06/23 03:26:05;;;;;;;1.40;1.00;;;16.80;1.40;;;18.16;100.00;95198.52;646964;212;31538;-73
2022/06/23 03:28:52;;;;;;;1.73;1.62;;;16.80;1.40;;;18.10;100.00;95198.03;646280;216;42716;-74
2022/06/23 03:31:40;;;;;;;2.60;1.77;;;16.80;1.40;;;18.07;100.00;95196.64;646005;216;43062;-73
2022/06/23 03:35:56;;;;;;;4.45;1.50;;;16.80;1.40;;;17.98;100.00;95207.86;647243;216;31876;-73
2022/06/23 03:41:37;;;;;;;2.45;2.12;;;16.70;1.40;;;17.92;100.00;95205.56;619843;222;31815;-73
2022/06/23 03:44:22;;;;;;;3.00;1.58;;;16.60;1.40;;;17.94;100.00;95210.91;619592;222;31894;-73
2022/06/23 03:47:05;;;;;;;4.30;2.45;;;16.60;1.40;;;17.91;100.00;95212.27;618191;222;32073;-75
2022/06/23 03:49:58;;;;;;;4.30;1.60;;;16.50;1.40;;;17.85;100.00;95208.20;647002;216;31548;-74
2022/06/23 03:52:48;;;;;;;1.37;1.20;;;16.50;1.40;;;17.83;100.00;95205.95;647873;212;31636;-74
2022/06/23 03:55:41;;;;;;;4.68;1.80;;;16.40;1.40;;;17.82;100.00;95210.67;647984;216;31612;-74
2022/06/23 03:58:34;;;;;;;2.90;1.90;;;16.40;1.40;;;17.83;100.00;95212.32;647497;216;31575;-75
2022/06/23 04:01:38;;;;;;;2.00;1.90;;;16.50;1.40;;;17.73;100.00;95214.09;646182;216;31561;-74
2022/06/23 04:04:21;;;;;;;2.72;1.40;;;16.50;1.40;;;17.74;100.00;95210.23;646586;216;31558;-74
2022/06/23 04:07:03;;;;;;;2.87;1.10;;;16.40;1.40;;;17.69;100.00;95210.97;646208;216;31630;-74
2022/06/23 04:09:44;;;;;;;2.00;1.35;;;16.40;1.40;;;17.73;100.00;95212.90;618872;226;31966;-74
2022/06/23 04:12:26;;;;;;;2.47;1.75;;;16.30;1.40;;;17.68;100.00;95210.52;646547;216;31718;-74
2022/06/23 04:15:08;;;;;;;4.07;1.50;;;16.30;1.40;;;17.61;100.00;95208.68;647523;216;32741;-75
2022/06/23 04:17:52;;;;;;;3.20;1.08;;;16.30;1.40;;;17.57;100.00;95211.52;645659;216;31564;-74
2022/06/23 04:20:33;;;;;;;3.20;0.90;;;16.30;1.40;;;17.61;100.00;95204.94;647108;212;31576;-74
2022/06/23 04:23:17;;;;;;;2.12;1.15;;;16.30;1.40;;;17.60;100.00;95213.41;618312;226;31939;-74
2022/06/23 04:26:17;;;;;;;4.37;1.47;;;16.30;1.40;;;17.65;100.00;95207.58;646436;216;31517;-74
2022/06/23 04:28:58;;;;;;;3.00;1.75;;;16.40;1.40;;;17.65;100.00;95216.99;646952;212;42171;-74
2022/06/23 04:31:41;;;;;;;1.00;0.90;;;16.30;1.40;;;17.65;100.00;95214.52;646909;216;31581;-74
2022/06/23 04:35:50;;;;;;;9.82;1.83;;;16.40;1.40;;;17.71;100.00;95214.01;647771;216;31582;-73
2022/06/23 04:38:38;;;;;;;5.00;1.80;;;16.40;1.40;;;17.75;100.00;95217.02;645978;216;31542;-74
2022/06/23 04:41:25;;;;;;;5.60;2.40;;;16.50;1.40;;;17.83;100.00;95211.17;646194;216;31648;-73
2022/06/23 04:44:24;;;;;;;5.00;2.30;;;16.60;1.40;;;17.85;100.00;95210.99;647452;216;31542;-73
2022/06/23 04:47:07;;;;;;;1.70;1.20;;;16.80;1.40;;;17.93;100.00;95213.38;646797;216;31778;-73
2022/06/23 04:49:55;;;;;;;2.25;1.45;;;16.90;1.40;;;17.94;100.00;95210.38;646818;216;31476;-73
2022/06/23 04:52:46;;;;;;;6.00;1.75;;;17.00;1.40;;;18.01;100.00;95208.43;646147;216;31686;-74
2022/06/23 04:58:04;;;;;;;5.05;1.95;;;17.10;1.40;;;18.15;100.00;95210.75;646699;216;31512;-73
2022/06/23 05:00:49;;;;;;;2.35;1.75;;;17.20;1.40;;;18.18;100.00;95205.68;646920;212;33548;-73
2022/06/23 05:03:32;;;;;;;2.17;1.70;;;17.30;1.40;;;18.30;100.00;95206.42;645359;216;31565;-74
2022/06/23 05:06:37;;;;;;;3.65;1.50;;;17.40;1.40;;;18.22;100.00;95210.70;642519;218;31657;-74
2022/06/23 05:09:28;;;;;;;2.37;1.42;;;17.40;1.40;;;18.33;100.00;95208.36;646528;216;31861;-73
2022/06/23 05:12:18;;;;;;;2.33;2.03;;;17.50;1.40;;;18.37;100.00;95207.20;647345;216;31812;-73
2022/06/23 05:15:24;;;;;;;5.15;1.77;;;17.50;1.40;;;18.49;100.00;95207.11;646652;216;31843;-74
2022/06/23 05:18:11;;;;;;;4.90;1.95;;;17.70;1.40;;;18.59;100.00;95207.66;645188;216;31733;-73
2022/06/23 05:20:53;;;;;;;4.68;1.87;;;17.80;1.40;;;18.73;100.00;95205.73;646577;216;31548;-73
2022/06/23 05:23:37;;;;;;;3.10;2.50;;;17.90;1.40;;;18.87;100.00;95204.75;645861;216;31515;-73
2022/06/23 05:26:24;;;;;;;3.67;2.83;;;18.00;1.40;;;18.96;100.00;95209.86;646410;212;31585;-73
2022/06/23 05:29:05;;;;;;;2.80;1.90;;;18.10;1.40;;;19.02;100.00;95208.09;646547;216;31670;-73
2022/06/23 05:31:47;;;;;;;8.05;2.35;;;18.20;1.40;;;19.21;100.00;95212.76;619371;226;31839;-74
2022/06/23 05:35:51;;;;;;;3.30;2.55;;;18.40;1.40;;;19.40;100.00;95213.16;646051;212;31565;-73
2022/06/23 05:38:42;;;;;;;7.90;2.40;;;18.50;1.40;;;19.47;100.00;95215.43;646848;212;31581;-73
2022/06/23 05:44:10;;;;;;;5.70;1.90;;;18.70;1.40;;;19.85;100.00;95219.00;646883;216;31664;-73
2022/06/23 05:46:52;;;;;;;2.90;1.60;;;18.70;1.40;;;19.75;100.00;95219.81;646503;212;31504;-74
2022/06/23 05:49:34;;;;;;;5.90;2.00;;;18.30;1.40;;;19.51;100.00;95222.95;646275;212;31591;-74
2022/06/23 05:52:16;;;;;;;1.52;1.17;;;17.90;1.40;;;19.26;100.00;95221.09;646313;216;32097;-74
2022/06/23 05:54:58;;;;;;;1.83;1.73;;;17.50;1.40;;;19.16;100.00;95218.80;646842;212;31602;-74
2022/06/23 05:57:48;;;;;;;1.87;1.25;;;17.50;1.40;;;19.12;100.00;95217.48;647267;216;42848;-73
2022/06/23 06:00:37;;;;;;;1.60;1.40;;;17.60;1.40;;;19.20;100.00;95213.63;618959;226;32252;-74
2022/06/23 06:06:04;;;;;;;1.43;1.00;;;17.70;1.40;;;19.36;100.00;95224.98;647074;212;42194;-72
2022/06/23 06:11:33;;;;;;;18.05;12.77;;;17.70;1.40;;;19.30;100.00;95225.48;616296;226;31898;-72
2022/06/23 06:14:14;;;;;;;8.80;2.20;;;17.80;1.40;;;19.31;100.00;95230.93;646683;212;31619;-72
2022/06/23 06:16:59;;;;;;;1.90;1.60;;;18.00;1.40;;;19.40;100.00;95227.97;648323;212;31513;-73
2022/06/23 06:19:40;;;;;;;3.40;1.50;;;18.20;1.40;;;19.51;100.00;95231.04;646416;212;31768;-74
2022/06/23 06:22:44;;;;;;;2.42;1.27;;;18.20;1.40;;;19.61;100.00;95230.62;619710;226;42527;-72
2022/06/23 06:25:28;;;;;;;2.87;1.60;;;18.10;1.40;;;19.60;100.00;95233.14;645088;216;31597;-73
2022/06/23 06:28:25;;;;;;;4.43;1.52;;;18.40;1.40;;;19.56;100.00;95244.72;647136;216;32038;-73
2022/06/23 06:31:13;;;;;;;2.72;1.70;;;18.40;1.40;;;19.62;100.00;95244.06;647154;216;31687;-73
2022/06/23 06:35:53;;;;;;;1.80;1.33;;;18.50;1.40;;;19.76;100.00;95247.75;645602;216;32128;-73
2022/06/23 06:38:35;;;;;;;3.77;1.50;;;18.60;1.40;;;19.91;100.00;95248.12;646574;216;42157;-73
2022/06/23 06:41:23;;;;;;;1.37;0.90;;;18.70;1.40;;;20.07;100.00;95247.28;648030;216;31743;-75
2022/06/23 06:44:10;;;;;;;1.60;1.10;;;18.70;1.40;;;20.22;100.00;95261.64;645561;216;31762;-74
2022/06/23 06:47:26;;;;;;;1.80;1.30;;;19.20;1.40;;;20.58;100.00;95259.81;646589;216;31568;-74
2022/06/23 06:50:17;;;;;;;3.85;1.87;;;19.60;1.40;;;20.79;100.00;95260.73;646096;216;31609;-74
2022/06/23 06:52:58;;;;;;;2.33;1.27;;;19.70;1.40;;;20.86;100.00;95263.88;639960;216;31936;-74
2022/06/23 06:55:43;;;;;;;2.30;1.50;;;19.80;1.40;;;21.09;100.00;95262.06;646264;216;31607;-74
2022/06/23 06:58:27;;;;;;;4.60;1.48;;;19.90;1.40;;;21.21;100.00;95265.09;647600;216;31577;-73
2022/06/23 07:01:20;;;;;;;1.90;1.45;;;20.00;1.40;;;21.20;100.00;95270.33;646891;212;31641;-74
2022/06/23 07:04:04;;;;;;;;;;;19.80;1.40;;;21.17;100.00;95263.66;652462;216;24812;-74
2022/06/23 07:06:46;;;;;;;;;;;19.50;1.40;;;21.15;100.00;95265.38;652609;216;24844;-73
2022/06/23 07:09:54;;;;;;;;;;;19.50;1.40;;;21.07;100.00;95272.19;654333;216;24849;-74
2022/06/23 07:12:36;;;;;;;;;;;19.50;1.40;;;21.22;100.00;95265.87;649775;216;24731;-73
2022/06/23 07:15:32;;;;;;;;;;;19.60;1.40;;;21.25;100.00;95270.27;653254;216;24809;-74
2022/06/23 07:18:20;;;;;;;;;;;19.60;1.40;;;21.28;100.00;95275.20;653639;216;24815;-73
2022/06/23 07:21:08;;;;;;;;;;;19.70;1.40;;;21.23;100.00;95271.42;652208;216;25015;-74
2022/06/23 07:23:52;;;;;;;;;;;19.60;1.40;;;21.23;100.00;95272.88;653223;216;25244;-74
2022/06/23 07:26:35;;;;;;;;;;;19.70;1.40;;;21.40;100.00;95273.13;653118;213;24719;-74
2022/06/23 07:29:43;;;;;;;;;;;19.90;1.40;;;21.66;100.00;95266.34;653173;216;24822;-73
2022/06/23 07:32:32;;;;;;;;;;;20.20;1.40;;;21.87;100.00;95265.32;653775;216;24807;-75
2022/06/23 07:35:52;;;;;;;1.98;1.50;;;20.30;1.40;;;21.98;100.00;95265.06;646305;216;31679;-74
2022/06/23 07:38:54;;;;;;;1.77;1.20;;;20.30;1.40;;;22.09;100.00;95265.88;646235;216;31564;-73
2022/06/23 07:41:51;;;;;;;2.70;1.35;;;20.40;1.40;;;22.27;100.00;95269.95;646652;216;31574;-74
2022/06/23 07:44:34;;;;;;;4.22;1.80;;;20.60;1.40;;;22.48;100.00;95263.20;646605;216;31739;-73
2022/06/23 07:47:22;;;;;;;2.62;1.23;;;20.90;1.40;;;22.53;100.00;95265.95;646817;216;31709;-78
2022/06/23 07:50:10;;;;;;;3.83;1.40;;;21.20;1.40;;;23.13;100.00;95268.46;647217;216;31611;-74
2022/06/23 07:52:54;;;;;;;2.42;1.20;;;21.50;1.40;;;23.40;100.00;95270.17;639495;216;31677;-74
2022/06/23 07:55:38;;;;;;;1.37;1.27;;;21.70;1.40;;;23.74;100.00;95272.12;646576;216;31506;-74
2022/06/23 07:58:22;;;;;;;1.80;1.40;;;21.80;1.40;;;23.89;100.00;95260.97;646836;216;31597;-73
2022/06/23 08:01:14;;;;;;;3.42;1.20;;;21.60;1.40;;;23.36;100.00;95267.23;647590;216;31523;-74
2022/06/23 08:04:16;;;;;;;4.60;1.50;;;21.40;1.40;;;23.33;100.00;95262.42;646870;212;31694;-73
2022/06/23 08:06:57;;;;;;;1.52;1.42;;;21.70;1.40;;;23.47;100.00;95263.45;647120;216;42142;-73
2022/06/23 08:09:41;;;;;;;5.75;1.20;;;22.40;1.40;;;23.73;100.00;95256.83;646894;216;31509;-74
2022/06/23 08:18:38;;;;;;;3.78;1.20;;;22.60;1.40;;;23.58;100.00;95249.30;646605;212;42402;-73
2022/06/23 08:21:25;;;;;;;2.20;1.27;;;22.50;1.40;;;23.70;100.00;95250.05;646982;216;31869;-73
2022/06/23 08:24:09;;;;;;;3.45;0.80;;;22.70;1.40;;;23.93;100.00;95250.17;646176;212;31568;-73
2022/06/23 08:26:51;;;;;;;1.40;0.90;;;23.00;1.40;;;24.00;100.00;95246.28;647264;216;31633;-73
2022/06/23 08:32:07;;;;;;;2.40;0.93;;;23.00;1.40;;;24.39;100.00;95245.12;647522;216;31482;-73
2022/06/23 08:35:51;;;;;;;0.90;0.67;;;23.50;1.40;;;24.35;99.34;95238.50;646473;216;31521;-73
2022/06/23 08:38:36;;;;;;;3.55;1.30;;;23.40;1.40;;;24.60;100.00;95231.84;617996;226;31842;-73
2022/06/23 08:41:25;;;;;;;2.30;0.80;;;23.60;1.40;;;24.28;97.20;95231.97;645826;212;31564;-73
2022/06/23 08:44:37;;;;;;;3.78;1.20;;;23.30;1.40;;;24.05;100.00;95229.13;646534;216;31526;-73
2022/06/23 08:47:21;;;;;;;3.65;1.50;;;23.10;1.40;;;24.15;100.00;95228.09;646179;216;31509;-73
2022/06/23 08:50:08;;;;;;;1.20;0.90;;;23.40;1.40;;;24.82;100.00;95225.84;647423;216;31480;-73
2022/06/23 08:52:51;;;;;;;3.12;1.40;;;24.00;1.40;;;25.08;100.00;95223.09;648193;216;31521;-73
2022/06/23 08:58:17;;;;;;;2.33;1.35;;;24.00;1.40;;;25.40;100.00;95220.56;647318;212;31697;-73
2022/06/23 09:01:18;;;;;;;4.68;1.73;;;24.40;1.40;;;25.55;100.00;95215.77;645862;216;31533;-74
2022/06/23 09:06:48;;;;;;;3.50;1.50;;;24.50;1.40;;;26.02;100.00;95215.52;646467;216;31558;-74
2022/06/23 09:09:33;;;;;;;4.50;1.12;;;25.10;1.40;;;26.39;92.96;95210.79;645547;216;31520;-73
2022/06/23 09:12:36;;;;;;;2.08;1.17;;;25.10;1.40;;;26.36;92.48;95204.55;647238;216;32012;-73
2022/06/23 09:15:39;;;;;;;4.00;1.80;;;25.10;1.40;;;26.81;94.90;95198.44;645661;212;31558;-73
2022/06/23 09:18:27;;;;;;;3.55;1.33;;;25.60;1.40;;;27.04;92.80;95196.22;647299;216;31938;-73
2022/06/23 09:21:30;;;;;;;4.10;1.50;;;25.50;1.40;;;27.12;86.28;95193.84;647090;216;31552;-74
2022/06/23 09:27:23;;;;;;;1.60;1.17;;;26.10;1.40;;;27.58;86.66;95182.63;645848;216;31603;-74
2022/06/23 09:30:14;;;;;;;1.42;1.02;;;26.80;1.40;;;28.66;87.47;95179.97;646247;216;32346;-73
2022/06/23 09:33:00;;;;;;;2.62;1.27;;;28.60;1.40;;;29.50;79.66;95169.33;646523;216;31556;-74
2022/06/23 09:35:58;;;;;;;2.33;1.15;;;30.50;1.40;;;31.08;70.91;95167.35;645897;216;31568;-74
2022/06/23 09:39:00;;;;;;;1.55;1.10;;;31.20;1.40;;;30.51;67.21;95169.98;647218;216;31716;-74
2022/06/23 09:42:06;;;;;;;2.90;1.10;;;31.00;1.40;;;32.22;68.78;95163.80;645634;216;32093;-74
2022/06/23 09:45:01;;;;;;;1.10;0.95;;;32.80;1.40;;;34.14;63.90;95159.25;618268;226;32189;-74
2022/06/23 09:50:39;;;;;;;4.30;1.15;;;35.00;1.40;;;35.11;50.37;95143.59;647682;216;31791;-73
2022/06/23 09:53:29;;;;;;;2.20;1.37;;;31.70;1.40;;;34.43;53.71;95139.07;623021;222;31881;-73
2022/06/23 09:56:33;;;;;;;4.50;1.85;;;32.00;1.40;;;33.86;56.56;95143.13;647376;212;31611;-72
2022/06/23 09:59:38;;;;;;;0.88;0.88;;;32.70;1.40;;;34.58;53.43;95135.53;644897;216;31702;-73
2022/06/23 10:02:39;;;;;;;2.80;1.10;;;31.30;1.40;;;34.29;50.36;95135.84;646546;216;31647;-73
2022/06/23 10:05:30;;;;;;;2.80;1.30;;;32.00;1.40;;;35.91;51.51;95121.11;645469;216;31920;-74
2022/06/23 10:08:19;;;;;;;6.22;1.30;;;33.50;1.40;;;36.28;47.92;95122.20;646575;212;31673;-73
2022/06/23 10:11:11;;;;;;;1.58;1.00;;;33.90;1.40;;;36.85;45.18;95118.33;646259;216;31614;-73
2022/06/23 10:15:43;;;;;;;2.92;1.35;;;33.20;1.40;;;34.66;45.79;95120.12;647496;212;31587;-73
2022/06/23 10:18:52;;;;;;;1.50;0.90;;;31.90;1.40;;;35.73;44.85;95117.34;646286;216;31557;-73
2022/06/23 10:21:55;;;;;;;2.08;1.10;;;32.50;1.40;;;37.26;42.10;95112.27;647611;216;31607;-74
2022/06/23 10:24:59;;;;;;;4.10;1.30;;;33.80;1.40;;;39.54;47.00;95107.42;646736;216;32218;-73
2022/06/23 10:27:55;;;;;;;2.80;1.10;;;34.70;1.40;;;39.78;39.82;95100.27;647624;216;31511;-73
2022/06/23 10:30:53;;;;;;;2.00;1.37;;;35.80;1.40;;;39.27;40.55;95102.49;647951;216;31515;-73
2022/06/23 10:35:55;;;;;;;2.60;1.40;;;33.70;1.40;;;35.25;41.29;95117.22;618866;225;31865;-73
2022/06/23 10:38:57;;;;;;;2.40;1.00;;;32.90;1.40;;;39.25;39.35;95103.84;647393;216;31532;-73
2022/06/23 10:41:59;;;;;;;1.27;1.00;;;34.50;1.40;;;37.88;38.70;95112.39;647594;216;31500;-73
2022/06/23 10:45:21;;;;;;;1.50;0.90;;;34.50;1.40;;;38.81;37.87;95105.94;645045;216;31553;-73
2022/06/23 10:48:07;;;;;;;3.27;1.00;;;32.90;1.40;;;36.37;38.64;95105.56;646700;216;31594;-74
2022/06/23 10:51:02;;;;;;;3.20;1.00;;;31.00;1.40;;;36.54;42.00;95096.81;646719;212;31470;-74
2022/06/23 10:54:02;;;;;;;2.47;0.95;;;31.50;1.40;;;36.51;43.32;95089.78;636090;212;31706;-74
2022/06/23 10:57:01;;;;;;;4.57;1.92;;;31.60;1.40;;;35.75;44.14;95089.76;618871;226;32112;-74
2022/06/23 10:59:47;;;;;;;1.75;0.90;;;31.20;1.40;;;34.71;44.81;95080.53;647483;216;32477;-74
2022/06/23 11:02:35;;;;;;;3.30;0.98;;;30.80;1.40;;;33.16;46.70;95085.98;646135;216;31647;-74
2022/06/23 11:05:42;;;;;;;6.10;1.40;;;30.50;1.40;;;32.30;49.57;95091.92;646577;216;31755;-74
2022/06/23 11:08:48;;;;;;;3.43;1.40;;;30.30;1.40;;;32.61;49.98;95090.11;647123;216;31685;-76
2022/06/23 11:11:52;;;;;;;2.12;1.20;;;30.80;1.40;;;33.28;46.41;95087.17;619956;226;31858;-77
2022/06/23 11:14:48;;;;;;;2.78;1.10;;;31.00;1.40;;;34.24;44.88;95081.80;645945;216;31667;-74
2022/06/23 11:17:36;;;;;;;1.90;1.00;;;31.10;1.40;;;34.89;43.28;95070.48;647188;212;31490;-77
2022/06/23 11:23:25;;;;;;;3.20;1.20;;;31.80;1.40;;;35.68;42.98;95061.98;645591;216;31594;-77
2022/06/23 11:26:45;;;;;;;3.97;1.10;;;32.20;1.40;;;34.91;44.13;95065.08;647060;212;31559;-78
2022/06/23 11:29:46;;;;;;;2.30;1.10;;;32.00;1.40;;;35.10;45.45;95057.93;646110;216;31686;-75
2022/06/23 11:35:59;;;;;;;3.78;1.10;;;32.30;1.40;;;34.31;45.83;95050.03;646232;216;32249;-75
2022/06/23 11:39:10;;;;;;;2.10;1.10;;;30.10;1.40;;;32.93;47.99;95050.07;646632;216;31561;-75
2022/06/23 11:42:09;;;;;;;1.90;0.90;;;28.60;1.40;;;32.28;48.88;95045.03;646642;216;31599;-74
2022/06/23 11:45:12;;;;;;;5.30;1.30;;;30.20;1.40;;;35.21;45.51;95036.73;646980;212;31565;-74
2022/06/23 11:51:21;;;;;;;3.53;1.85;;;33.10;1.40;;;37.81;43.88;95034.15;647032;216;31550;-73
2022/06/23 11:54:22;;;;;;;2.33;1.30;;;33.20;1.40;;;38.78;42.63;95021.88;647251;216;31552;-73
2022/06/23 11:57:08;;;;;;;1.90;0.90;;;33.80;1.40;;;40.12;41.86;95012.92;646694;216;31563;-73
2022/06/23 12:00:09;;;;;;;2.70;1.67;;;33.80;1.40;;;38.21;44.34;95021.92;619383;226;31870;-73
2022/06/23 12:03:22;;;;;;;2.55;1.30;;;33.30;1.40;;;39.13;39.75;95008.70;618421;225;31891;-73
2022/06/23 12:08:43;;;;;;;2.17;1.20;;;33.70;1.40;;;39.06;41.24;95006.36;646817;216;31689;-73
2022/06/23 12:11:24;;;;;;;2.20;1.30;;;31.80;1.40;;;38.02;43.80;95011.11;646619;216;31542;-73
2022/06/23 12:14:07;;;;;;;3.40;1.30;;;33.00;1.40;;;37.77;40.54;95008.33;646925;216;31534;-73
2022/06/23 12:16:55;;;;;;;3.27;1.00;;;32.90;1.40;;;38.68;38.17;95001.00;645584;212;31763;-75
2022/06/23 12:19:55;;;;;;;3.40;1.20;;;32.20;1.40;;;39.45;40.25;94992.70;645501;216;31752;-72
2022/06/23 12:22:54;;;;;;;2.95;1.58;;;32.10;1.40;;;37.12;42.29;94992.42;647469;212;31526;-75
2022/06/23 12:26:02;;;;;;;4.12;1.90;;;30.70;1.40;;;35.27;44.81;94996.80;645661;216;31553;-73
2022/06/23 12:28:59;;;;;;;4.70;1.80;;;29.80;1.40;;;34.61;47.80;94990.16;647107;216;32172;-73
2022/06/23 12:31:59;;;;;;;2.00;1.60;;;30.90;1.40;;;32.56;48.91;94997.78;646707;216;31811;-75
2022/06/23 12:35:54;;;;;;;4.45;1.40;;;31.50;1.40;;;37.42;43.70;94974.02;645108;212;32215;-74
2022/06/23 12:38:37;;;;;;;3.78;1.67;;;32.90;1.40;;;39.74;39.79;94963.27;647210;216;31633;-74
2022/06/23 12:43:57;;;;;;;3.55;1.27;;;34.60;1.40;;;42.16;37.76;94958.58;646942;216;31627;-73
2022/06/23 12:46:42;;;;;;;2.20;1.35;;;34.30;1.40;;;39.49;40.31;94955.02;645567;216;31516;-74
2022/06/23 12:49:30;;;;;;;2.08;1.20;;;32.40;1.40;;;38.44;40.24;94955.29;619226;226;31869;-73
2022/06/23 12:55:12;;;;;;;2.70;1.87;;;33.20;1.40;;;41.71;37.39;94946.60;647870;216;31527;-74
2022/06/23 12:58:16;;;;;;;3.90;2.00;;;33.90;1.40;;;40.26;37.91;94941.51;645604;216;31758;-73
2022/06/23 13:01:07;;;;;;;4.93;2.08;;;34.20;1.40;;;37.30;41.08;94941.94;647086;216;31767;-75
2022/06/23 13:03:57;;;;;;;3.42;1.30;;;31.30;1.40;;;35.57;44.05;94948.41;619266;225;32203;-73
2022/06/23 13:06:49;;;;;;;2.05;1.20;;;30.10;1.40;;;34.04;47.99;94950.06;645849;216;31788;-73
2022/06/23 13:09:38;;;;;;;1.30;1.20;;;30.20;1.40;;;36.84;40.53;94949.75;647249;216;31639;-73
2022/06/23 13:12:23;;;;;;;2.40;1.20;;;31.80;1.40;;;39.78;39.01;94934.81;647202;216;31563;-73
2022/06/23 13:15:09;;;;;;;3.20;1.20;;;33.50;1.40;;;40.70;37.20;94928.95;647001;212;32194;-73
2022/06/23 13:17:56;;;;;;;4.87;1.50;;;34.10;1.40;;;40.34;37.34;94930.48;646809;216;31613;-73
2022/06/23 13:20:45;;;;;;;3.83;1.30;;;33.70;1.40;;;41.46;38.04;94926.20;647014;216;31550;-74